Time;durP1;ratioP1;P1;durP2;ratioP2;P2;SDS_P1;SDS_P2;PMS_P1;PMS_P2;Temp;Humidity;BMP_temperature;BMP_pressure;BME280_temperature;BME280_humidity;BME280_pressure;Samples;Min_cycle;Max_cycle;Signal;HPM_P1;HPM_P2
2023/12/03 00:00:09;;;;;;;6.68;3.60;;;;;;;-0.73;74.54;99941.28;340020;28;4980;-75
2023/12/03 00:00:21;;;;;;;6.20;3.70;;;;;;;-0.70;74.70;99934.56;337097;28;17936;-75
2023/12/03 00:00:34;;;;;;;5.55;3.60;;;;;;;-0.65;74.83;99939.72;339979;28;4567;-77
2023/12/03 00:00:47;;;;;;;5.65;3.50;;;;;;;-0.66;74.77;99944.00;337367;28;18243;-77
2023/12/03 00:00:59;;;;;;;5.43;3.38;;;;;;;-0.60;74.14;99943.25;339562;28;4635;-78
2023/12/03 00:01:11;;;;;;;6.18;3.50;;;;;;;-0.56;74.73;99942.47;337146;28;17599;-78
2023/12/03 00:01:24;;;;;;;6.20;3.38;;;;;;;-0.57;74.49;99948.38;339942;28;5745;-78
2023/12/03 00:01:36;;;;;;;5.72;3.13;;;;;;;-0.65;74.46;99944.84;338431;28;18030;-78
2023/12/03 00:01:49;;;;;;;5.47;3.17;;;;;;;-0.67;74.28;99943.94;340106;28;4532;-78
2023/12/03 00:02:02;;;;;;;6.55;3.58;;;;;;;-0.68;74.95;99947.34;336980;28;18029;-76
2023/12/03 00:02:14;;;;;;;6.72;3.60;;;;;;;-0.69;75.60;99949.03;338605;28;4495;-76
2023/12/03 00:02:27;;;;;;;5.53;3.28;;;;;;;-0.72;74.97;99945.59;334951;28;18157;-76
2023/12/03 00:02:40;;;;;;;6.32;3.60;;;;;;;-0.91;75.52;99945.22;339646;28;4529;-76
2023/12/03 00:02:52;;;;;;;6.25;3.70;;;;;;;-0.95;75.81;99948.56;335498;28;18290;-76
2023/12/03 00:03:04;;;;;;;5.80;3.47;;;;;;;-0.86;76.30;99945.34;337507;28;5668;-75
2023/12/03 00:03:16;;;;;;;5.55;3.03;;;;;;;-0.79;75.73;99943.75;336013;28;18460;-75
2023/12/03 00:03:28;;;;;;;6.50;3.25;;;;;;;-0.79;75.57;99943.75;332515;28;17713;-75
2023/12/03 00:03:40;;;;;;;7.03;3.42;;;;;;;-0.79;74.63;99939.47;339215;28;4636;-77
2023/12/03 00:03:52;;;;;;;7.32;3.80;;;;;;;-0.90;75.16;99941.84;335744;28;18623;-77
2023/12/03 00:04:04;;;;;;;7.50;3.88;;;;;;;-0.90;74.79;99946.09;338290;28;4490;-77
2023/12/03 00:04:17;;;;;;;8.50;3.40;;;;;;;-0.85;75.19;99950.44;336016;28;18481;-77
2023/12/03 00:04:31;;;;;;;7.80;3.30;;;;;;;-0.85;74.69;99945.34;338320;28;13142;-78
2023/12/03 00:04:44;;;;;;;5.82;3.30;;;;;;;-0.88;75.22;99947.00;339654;28;5046;-78
2023/12/03 00:04:58;;;;;;;5.18;3.40;;;;;;;-0.85;74.81;99945.34;337738;28;5295;-76
2023/12/03 00:05:11;;;;;;;5.63;3.60;;;;;;;-0.89;75.01;99947.81;339949;28;5023;-74
2023/12/03 00:05:23;;;;;;;6.15;3.35;;;;;;;-0.83;74.65;99947.91;335633;28;18018;-74
2023/12/03 00:05:37;;;;;;;6.55;3.35;;;;;;;-0.83;75.47;99943.66;341567;28;4889;-75
2023/12/03 00:05:49;;;;;;;6.32;3.38;;;;;;;-0.79;75.54;99943.75;337979;28;18061;-75
2023/12/03 00:06:02;;;;;;;7.35;3.70;;;;;;;-0.84;75.39;99946.22;337417;28;12168;-75
2023/12/03 00:06:14;;;;;;;6.25;3.33;;;;;;;-0.81;75.12;99946.25;336606;28;5318;-75
2023/12/03 00:06:26;;;;;;;5.28;2.83;;;;;;;-0.84;74.90;99936.88;339988;28;17826;-74
2023/12/03 00:06:39;;;;;;;5.65;2.75;;;;;;;-0.86;75.53;99948.72;341461;28;4614;-77
2023/12/03 00:06:55;;;;;;;6.80;3.17;;;;;;;-0.78;75.51;99945.47;338888;28;17862;-77
2023/12/03 00:07:07;;;;;;;6.65;3.45;;;;;;;-0.86;74.86;99938.53;339393;28;5051;-77
2023/12/03 00:07:21;;;;;;;6.43;3.60;;;;;;;-0.86;74.23;99937.69;342660;28;5445;-77
2023/12/03 00:07:34;;;;;;;6.43;3.17;;;;;;;-0.83;74.75;99942.81;338588;28;19092;-77
2023/12/03 00:07:46;;;;;;;6.05;3.00;;;;;;;-0.95;75.02;99940.91;330400;28;5240;-77
2023/12/03 00:07:58;;;;;;;6.30;3.42;;;;;;;-0.90;74.98;99941.84;337504;28;19154;-76
2023/12/03 00:08:11;;;;;;;6.82;3.67;;;;;;;-0.94;75.01;99942.63;341569;28;5235;-77
2023/12/03 00:08:23;;;;;;;8.20;4.20;;;;;;;-0.82;74.83;99936.91;338709;28;19135;-74
2023/12/03 00:08:45;;;;;;;8.20;4.80;;;;;;;-0.67;75.14;99949.06;337481;28;17005;-74
2023/12/03 00:09:02;;;;;;;8.10;4.75;;;;;;;-0.68;74.87;99944.81;339463;28;17984;-74
2023/12/03 00:09:15;;;;;;;6.63;3.90;;;;;;;-0.62;74.08;99942.34;337183;28;18018;-74
2023/12/03 00:09:27;;;;;;;5.95;3.65;;;;;;;-0.57;74.33;99940.72;334671;28;5092;-73
2023/12/03 00:09:39;;;;;;;6.68;3.95;;;;;;;-0.53;74.40;99934.84;336311;28;18349;-76
2023/12/03 00:09:52;;;;;;;7.00;4.05;;;;;;;-0.51;73.78;99945.09;338745;28;4899;-75
2023/12/03 00:10:05;;;;;;;7.67;4.20;;;;;;;-0.49;73.96;99943.41;336461;28;17780;-76
2023/12/03 00:10:17;;;;;;;7.55;3.95;;;;;;;-0.44;74.20;99945.22;339234;28;4554;-77
2023/12/03 00:10:30;;;;;;;6.15;3.60;;;;;;;-0.43;73.70;99944.38;337153;28;18327;-76
2023/12/03 00:10:42;;;;;;;6.75;3.38;;;;;;;-0.39;73.67;99947.84;335992;28;4740;-75
2023/12/03 00:10:55;;;;;;;7.65;3.58;;;;;;;-0.38;73.04;99943.56;337840;28;18253;-76
2023/12/03 00:11:07;;;;;;;7.63;3.58;;;;;;;-0.36;73.14;99944.47;339364;28;5143;-76
2023/12/03 00:11:19;;;;;;;6.55;3.58;;;;;;;-0.45;72.99;99940.94;337903;28;4508;-77
2023/12/03 00:11:31;;;;;;;6.30;3.40;;;;;;;-0.50;73.28;99947.66;338974;28;5276;-75
2023/12/03 00:11:43;;;;;;;5.80;3.17;;;;;;;-0.51;73.22;99943.38;337081;28;13075;-75
2023/12/03 00:11:55;;;;;;;5.68;2.83;;;;;;;-0.53;73.43;99941.66;340297;28;4610;-74
2023/12/03 00:12:07;;;;;;;6.25;3.10;;;;;;;-0.54;73.22;99951.00;339828;28;4507;-75
2023/12/03 00:12:20;;;;;;;5.75;3.25;;;;;;;-0.56;73.20;99947.56;338529;28;18081;-75
2023/12/03 00:12:32;;;;;;;5.32;3.28;;;;;;;-0.52;73.44;99948.47;340633;28;4693;-74
2023/12/03 00:12:45;;;;;;;7.10;3.38;;;;;;;-0.50;73.35;99946.81;338918;28;16547;-76
2023/12/03 00:12:57;;;;;;;7.40;3.38;;;;;;;-0.52;74.02;99944.22;341085;28;4699;-78
2023/12/03 00:13:09;;;;;;;6.38;3.22;;;;;;;-0.55;74.18;99948.41;338403;28;13125;-77
2023/12/03 00:13:21;;;;;;;5.20;3.15;;;;;;;-0.54;73.86;99945.91;340836;28;5195;-77
2023/12/03 00:13:34;;;;;;;5.57;3.58;;;;;;;-0.55;74.15;99946.72;341815;28;4680;-77
2023/12/03 00:13:46;;;;;;;7.55;3.80;;;;;;;-0.53;73.62;99939.94;340292;28;13541;-77
2023/12/03 00:13:58;;;;;;;8.40;3.42;;;;;;;-0.53;73.96;99946.75;342240;28;5537;-77
2023/12/03 00:14:10;;;;;;;7.50;3.47;;;;;;;-0.53;74.37;99947.59;342102;28;13469;-77
2023/12/03 00:14:22;;;;;;;6.10;3.20;;;;;;;-0.52;73.78;99943.38;338722;28;17862;-78
2023/12/03 00:14:34;;;;;;;7.10;3.40;;;;;;;-0.49;73.34;99946.81;339299;28;16209;-76
2023/12/03 00:14:46;;;;;;;6.95;3.38;;;;;;;-0.50;74.07;99942.56;342872;28;4564;-76
2023/12/03 00:14:59;;;;;;;6.20;3.38;;;;;;;-0.47;73.52;99947.69;333787;28;4538;-75
2023/12/03 00:15:11;;;;;;;5.53;3.22;;;;;;;-0.45;74.04;99946.03;337774;28;17535;-75
2023/12/03 00:15:23;;;;;;;5.95;3.13;;;;;;;-0.46;74.26;99946.88;340578;28;5277;-75
2023/12/03 00:15:36;;;;;;;6.28;3.28;;;;;;;-0.52;74.04;99948.47;334077;28;18059;-77
2023/12/03 00:15:48;;;;;;;6.25;3.15;;;;;;;-0.52;74.01;99951.88;339943;28;4547;-77
2023/12/03 00:16:00;;;;;;;5.65;2.90;;;;;;;-0.48;73.64;99952.81;335387;28;5435;-77
2023/12/03 00:16:12;;;;;;;6.43;2.63;;;;;;;-0.48;73.48;99952.81;340757;28;4711;-77
2023/12/03 00:16:24;;;;;;;7.03;2.90;;;;;;;-0.55;73.51;99954.38;336441;28;4800;-77
2023/12/03 00:16:36;;;;;;;6.65;3.20;;;;;;;-0.52;74.10;99951.88;341773;28;4496;-77
2023/12/03 00:16:49;;;;;;;6.25;3.20;;;;;;;-0.60;74.06;99945.78;341420;28;5301;-77
2023/12/03 00:17:01;;;;;;;5.95;3.05;;;;;;;-0.63;73.90;99946.56;337408;28;17116;-77
2023/12/03 00:17:13;;;;;;;7.45;3.38;;;;;;;-0.63;73.27;99953.38;339845;28;4582;-75
2023/12/03 00:17:25;;;;;;;7.57;3.45;;;;;;;-0.64;73.38;99954.22;336742;28;11680;-75
2023/12/03 00:17:37;;;;;;;6.22;3.10;;;;;;;-0.63;73.38;99955.94;340179;28;4832;-75
2023/12/03 00:17:51;;;;;;;7.65;3.35;;;;;;;-0.58;73.12;99953.47;338766;28;4531;-76
2023/12/03 00:18:03;;;;;;;7.72;3.47;;;;;;;-0.59;73.81;99957.72;338663;28;19125;-76
2023/12/03 00:18:15;;;;;;;6.63;3.33;;;;;;;-0.59;73.72;99947.50;337742;28;10471;-75
2023/12/03 00:18:29;;;;;;;6.22;3.30;;;;;;;-0.57;73.35;99950.94;339467;28;4534;-75
2023/12/03 00:18:41;;;;;;;6.70;3.38;;;;;;;-0.56;73.42;99950.13;335835;28;18101;-76
2023/12/03 00:18:54;;;;;;;6.57;3.33;;;;;;;-0.54;73.41;99951.00;338798;28;4662;-76
2023/12/03 00:19:06;;;;;;;5.53;3.20;;;;;;;-0.55;73.27;99949.25;337075;28;18838;-76
2023/12/03 00:19:18;;;;;;;8.02;3.58;;;;;;;-0.52;73.70;99951.88;339639;28;5349;-76
2023/12/03 00:19:32;;;;;;;8.45;3.80;;;;;;;-0.52;73.81;99953.59;336867;28;17187;-76
2023/12/03 00:19:44;;;;;;;5.90;3.47;;;;;;;-0.54;73.88;99956.13;338650;28;4807;-76
2023/12/03 00:19:56;;;;;;;4.72;3.08;;;;;;;-0.56;73.10;99952.66;336717;28;11157;-76
2023/12/03 00:20:08;;;;;;;6.20;3.35;;;;;;;-0.52;73.36;99956.16;338736;28;5080;-76
2023/12/03 00:20:20;;;;;;;6.50;3.30;;;;;;;-0.55;73.43;99954.38;335709;28;13761;-76
2023/12/03 00:20:32;;;;;;;5.40;3.10;;;;;;;-0.52;74.19;99953.59;340184;28;4667;-76
2023/12/03 00:20:44;;;;;;;5.35;3.03;;;;;;;-0.50;73.83;99955.31;340237;28;5250;-76
2023/12/03 00:20:56;;;;;;;5.80;2.97;;;;;;;-0.47;73.96;99951.97;336089;28;18214;-76
2023/12/03 00:21:08;;;;;;;6.90;3.15;;;;;;;-0.52;73.54;99954.44;339431;28;4604;-76
2023/12/03 00:21:21;;;;;;;6.72;3.30;;;;;;;-0.54;73.09;99951.00;337062;28;9566;-76
2023/12/03 00:21:33;;;;;;;8.02;3.55;;;;;;;-0.57;73.46;99950.94;340773;28;4641;-78
2023/12/03 00:21:45;;;;;;;7.18;3.40;;;;;;;-0.62;73.52;99952.56;340208;28;4516;-78
2023/12/03 00:21:57;;;;;;;6.10;3.42;;;;;;;-0.59;73.20;99956.84;337296;28;17729;-78
2023/12/03 00:22:09;;;;;;;7.18;3.58;;;;;;;-0.55;73.75;99956.94;335992;28;5001;-77
2023/12/03 00:22:21;;;;;;;6.63;3.30;;;;;;;-0.52;73.44;99957.00;338383;28;12253;-78
2023/12/03 00:22:34;;;;;;;6.47;3.33;;;;;;;-0.52;73.38;99959.56;341425;28;4652;-77
2023/12/03 00:22:46;;;;;;;7.47;3.65;;;;;;;-0.55;73.66;99956.94;338735;28;17182;-78
2023/12/03 00:22:59;;;;;;;6.60;3.45;;;;;;;-0.53;73.62;99962.91;341418;28;5459;-78
2023/12/03 00:23:11;;;;;;;5.63;3.35;;;;;;;-0.53;73.71;99960.38;338753;28;11885;-76
2023/12/03 00:23:23;;;;;;;6.15;3.35;;;;;;;-0.59;73.38;99950.03;340211;28;4705;-76
2023/12/03 00:23:35;;;;;;;7.60;3.80;;;;;;;-0.51;73.26;99950.19;336362;28;4606;-75
2023/12/03 00:23:47;;;;;;;8.52;3.92;;;;;;;-0.47;73.46;99952.81;338298;28;17779;-75
2023/12/03 00:23:59;;;;;;;7.68;3.88;;;;;;;-0.44;73.13;99957.97;337750;28;5957;-74
2023/12/03 00:24:11;;;;;;;7.03;3.67;;;;;;;-0.47;72.83;99952.81;326771;28;17968;-75
2023/12/03 00:24:24;;;;;;;6.88;3.35;;;;;;;-0.48;72.91;99956.22;341287;28;4485;-78
2023/12/03 00:24:36;;;;;;;7.07;3.20;;;;;;;-0.41;73.09;99957.16;340388;28;4527;-78
2023/12/03 00:24:48;;;;;;;7.70;3.50;;;;;;;-0.39;72.48;99949.53;338978;28;18162;-78
2023/12/03 00:25:00;;;;;;;6.53;3.67;;;;;;;-0.36;73.52;99949.56;338505;28;4640;-78
2023/12/03 00:25:12;;;;;;;6.88;3.50;;;;;;;-0.35;73.01;99952.16;335513;28;5140;-77
2023/12/03 00:25:24;;;;;;;6.57;3.17;;;;;;;-0.37;72.49;99947.88;338437;28;4877;-78
2023/12/03 00:25:36;;;;;;;5.85;3.00;;;;;;;-0.38;72.92;99946.13;338927;28;5865;-78
2023/12/03 00:25:49;;;;;;;6.40;3.00;;;;;;;-0.47;72.85;99955.38;335083;28;18211;-77
2023/12/03 00:26:01;;;;;;;6.40;3.20;;;;;;;-0.44;73.15;99952.03;334885;28;4579;-78
2023/12/03 00:26:13;;;;;;;6.07;3.38;;;;;;;-0.43;72.92;99952.03;330718;28;17340;-78
2023/12/03 00:26:26;;;;;;;6.70;4.18;;;;;;;-0.42;73.32;99952.91;336876;28;5759;-75
2023/12/03 00:26:38;;;;;;;6.45;4.25;;;;;;;-0.45;73.07;99946.03;335738;28;5625;-76
2023/12/03 00:26:51;;;;;;;5.97;3.55;;;;;;;-0.51;73.21;99951.03;335786;28;12843;-76
2023/12/03 00:27:03;;;;;;;6.35;2.78;;;;;;;-0.58;73.30;99949.22;337987;28;4756;-76
2023/12/03 00:27:15;;;;;;;6.82;2.85;;;;;;;-0.58;73.07;99949.22;336933;28;19196;-75
2023/12/03 00:27:27;;;;;;;7.30;3.20;;;;;;;-0.60;73.31;99940.69;335655;28;7379;-78
2023/12/03 00:27:39;;;;;;;5.88;3.30;;;;;;;-0.62;73.36;99947.47;336870;28;16014;-78
2023/12/03 00:27:52;;;;;;;5.20;2.97;;;;;;;-0.66;73.29;99946.53;339226;28;4817;-78
2023/12/03 00:28:04;;;;;;;5.25;2.92;;;;;;;-0.61;73.42;99944.06;332103;28;18214;-78
2023/12/03 00:28:16;;;;;;;5.82;2.78;;;;;;;-0.56;73.36;99942.47;340314;28;5134;-77
2023/12/03 00:28:28;;;;;;;7.05;3.20;;;;;;;-0.55;74.13;99944.16;337919;28;13787;-77
2023/12/03 00:28:40;;;;;;;6.22;3.25;;;;;;;-0.53;73.50;99949.31;340013;28;4915;-77
2023/12/03 00:28:52;;;;;;;4.85;2.90;;;;;;;-0.60;73.97;99945.78;339753;28;5128;-77
2023/12/03 00:29:04;;;;;;;4.57;2.80;;;;;;;-0.57;73.74;99950.94;336763;28;18475;-74
2023/12/03 00:29:16;;;;;;;6.40;3.00;;;;;;;-0.53;73.95;99951.84;338796;28;5205;-74
2023/12/03 00:29:28;;;;;;;7.15;3.05;;;;;;;-0.51;73.33;99945.09;339834;28;4701;-74
2023/12/03 00:29:40;;;;;;;7.65;3.22;;;;;;;-0.49;73.74;99951.91;331966;28;18135;-73
2023/12/03 00:29:52;;;;;;;6.43;3.40;;;;;;;-0.49;74.16;99954.47;340933;28;4725;-72
2023/12/03 00:30:04;;;;;;;7.70;3.60;;;;;;;-0.48;73.30;99946.00;337098;28;13265;-74
2023/12/03 00:30:16;;;;;;;7.70;3.83;;;;;;;-0.43;74.08;99944.38;340847;28;4630;-76
2023/12/03 00:30:29;;;;;;;6.38;3.40;;;;;;;-0.39;73.70;99952.09;338788;28;7989;-76
2023/12/03 00:30:41;;;;;;;5.65;3.25;;;;;;;-0.45;73.18;99951.13;338004;28;16982;-77
2023/12/03 00:30:53;;;;;;;6.85;3.65;;;;;;;-0.52;73.22;99954.44;339458;28;4591;-75
2023/12/03 00:31:05;;;;;;;7.63;3.88;;;;;;;-0.53;73.34;99952.72;336854;28;13785;-76
2023/12/03 00:31:17;;;;;;;6.50;3.40;;;;;;;-0.53;73.03;99947.59;340233;28;4687;-77
2023/12/03 00:31:29;;;;;;;6.50;3.33;;;;;;;-0.47;73.20;99946.84;337873;28;17474;-77
2023/12/03 00:31:41;;;;;;;6.15;3.20;;;;;;;-0.48;72.33;99956.22;341641;28;5421;-77
2023/12/03 00:31:53;;;;;;;6.50;3.38;;;;;;;-0.54;72.61;99948.44;340995;28;4556;-77
2023/12/03 00:32:05;;;;;;;6.45;3.63;;;;;;;-0.58;72.39;99953.47;335403;28;18447;-77
2023/12/03 00:32:17;;;;;;;6.40;3.80;;;;;;;-0.55;72.71;99946.72;340145;28;5288;-75
2023/12/03 00:32:29;;;;;;;6.47;3.60;;;;;;;-0.53;72.28;99952.72;339832;28;5172;-75
2023/12/03 00:32:41;;;;;;;6.68;3.40;;;;;;;-0.56;72.38;99957.78;338691;28;18392;-75
2023/12/03 00:32:54;;;;;;;6.28;3.25;;;;;;;-0.56;72.47;99950.13;340594;28;4549;-75
2023/12/03 00:33:06;;;;;;;6.22;3.38;;;;;;;-0.53;72.33;99950.16;336109;28;18331;-75
2023/12/03 00:33:18;;;;;;;6.30;3.50;;;;;;;-0.51;72.49;99958.69;338576;28;4690;-75
2023/12/03 00:33:30;;;;;;;5.80;3.30;;;;;;;-0.50;72.47;99957.88;336698;28;14152;-76
2023/12/03 00:33:42;;;;;;;6.80;3.30;;;;;;;-0.55;72.70;99951.81;339705;28;5509;-76
2023/12/03 00:33:55;;;;;;;6.90;3.40;;;;;;;-0.53;73.22;99957.81;332509;28;6688;-76
2023/12/03 00:34:07;;;;;;;7.25;3.63;;;;;;;-0.51;72.68;99956.16;338308;28;18330;-76
2023/12/03 00:34:19;;;;;;;6.78;3.40;;;;;;;-0.53;72.27;99956.97;337002;28;4689;-76
2023/12/03 00:34:31;;;;;;;6.65;3.17;;;;;;;-0.54;72.33;99961.22;329073;28;17924;-77
2023/12/03 00:34:43;;;;;;;8.25;3.20;;;;;;;-0.53;72.44;99955.25;338806;28;5289;-77
2023/12/03 00:34:55;;;;;;;7.32;3.15;;;;;;;-0.62;73.04;99958.53;335959;28;17776;-78
2023/12/03 00:35:08;;;;;;;7.45;3.58;;;;;;;-0.58;72.87;99962.00;338879;28;4945;-76
2023/12/03 00:35:20;;;;;;;9.77;3.95;;;;;;;-0.54;72.88;99958.66;341140;28;5376;-76
2023/12/03 00:35:32;;;;;;;10.25;4.05;;;;;;;-0.57;73.30;99958.59;333702;28;17295;-76
2023/12/03 00:35:44;;;;;;;7.63;3.78;;;;;;;-0.60;72.62;99961.13;340171;28;4815;-76
2023/12/03 00:35:59;;;;;;;6.30;3.38;;;;;;;-0.56;72.86;99956.91;337053;28;15267;-76
2023/12/03 00:36:12;;;;;;;4.90;3.10;;;;;;;-0.52;73.06;99962.09;339258;28;4734;-77
2023/12/03 00:36:24;;;;;;;5.30;3.15;;;;;;;-0.54;72.54;99961.22;335034;28;16812;-78
2023/12/03 00:36:36;;;;;;;5.60;3.10;;;;;;;-0.56;72.79;99965.44;339290;28;13129;-77
2023/12/03 00:36:48;;;;;;;5.95;3.20;;;;;;;-0.54;73.41;99961.22;342499;28;4786;-78
2023/12/03 00:37:00;;;;;;;6.75;3.20;;;;;;;-0.57;73.19;99961.16;340028;28;4642;-77
2023/12/03 00:37:12;;;;;;;6.38;3.28;;;;;;;-0.54;73.12;99965.44;337010;28;17790;-78
2023/12/03 00:37:24;;;;;;;7.40;3.75;;;;;;;-0.54;73.01;99961.22;342479;28;5207;-79
2023/12/03 00:37:36;;;;;;;7.43;4.10;;;;;;;-0.61;72.92;99964.47;338618;28;17259;-78
2023/12/03 00:37:48;;;;;;;6.43;3.63;;;;;;;-0.57;73.23;99962.84;341178;28;4683;-76
2023/12/03 00:38:00;;;;;;;6.55;3.35;;;;;;;-0.53;73.71;99959.50;340224;28;4572;-76
2023/12/03 00:38:12;;;;;;;6.70;3.10;;;;;;;-0.47;73.00;99957.91;337074;28;18027;-75
2023/12/03 00:38:25;;;;;;;6.13;3.10;;;;;;;-0.44;73.23;99960.53;335734;28;6929;-75
2023/12/03 00:38:37;;;;;;;5.90;2.95;;;;;;;-0.44;73.05;99957.97;337769;28;12739;-75
2023/12/03 00:38:49;;;;;;;6.20;2.92;;;;;;;-0.43;73.32;99961.38;341367;28;4564;-75
2023/12/03 00:39:01;;;;;;;6.55;3.42;;;;;;;-0.49;72.99;99959.59;338691;28;5357;-77
2023/12/03 00:39:14;;;;;;;6.38;3.70;;;;;;;-0.53;73.38;99962.91;334777;28;18745;-75
2023/12/03 00:39:26;;;;;;;7.00;3.58;;;;;;;-0.54;73.08;99961.22;339054;28;4861;-76
2023/12/03 00:39:38;;;;;;;7.22;3.60;;;;;;;-0.62;73.64;99962.78;335894;28;18129;-76
2023/12/03 00:39:50;;;;;;;6.70;3.38;;;;;;;-0.59;74.09;99962.81;336584;28;5961;-76
2023/12/03 00:40:02;;;;;;;6.18;3.28;;;;;;;-0.61;73.74;99959.38;335236;28;13423;-75
2023/12/03 00:40:14;;;;;;;6.75;3.00;;;;;;;-0.60;73.80;99966.22;338484;28;4606;-76
2023/12/03 00:40:26;;;;;;;6.20;3.05;;;;;;;-0.62;73.98;99962.78;338836;28;4600;-75
2023/12/03 00:40:39;;;;;;;5.35;2.90;;;;;;;-0.65;74.11;99957.59;336833;28;17948;-76
2023/12/03 00:40:51;;;;;;;5.70;3.10;;;;;;;-0.64;74.39;99962.75;339868;28;4521;-76
2023/12/03 00:41:04;;;;;;;7.63;3.55;;;;;;;-0.61;74.64;99960.22;338272;28;18334;-74
2023/12/03 00:41:16;;;;;;;8.45;3.60;;;;;;;-0.68;74.08;99962.66;341543;28;4667;-73
2023/12/03 00:41:28;;;;;;;7.65;3.50;;;;;;;-0.72;74.79;99960.91;338592;28;5701;-74
2023/12/03 00:41:40;;;;;;;12.52;3.70;;;;;;;-0.68;74.80;99957.56;337284;28;18290;-73
2023/12/03 00:41:52;;;;;;;12.68;3.83;;;;;;;-0.69;74.69;99963.50;340826;28;5743;-74
2023/12/03 00:42:04;;;;;;;13.20;4.15;;;;;;;-0.66;74.35;99966.13;337443;28;17787;-77
2023/12/03 00:42:16;;;;;;;6.63;3.45;;;;;;;-0.62;74.64;99962.78;339410;28;4667;-75
2023/12/03 00:42:28;;;;;;;7.50;3.28;;;;;;;-0.67;74.60;99964.38;338569;28;15925;-78
2023/12/03 00:42:40;;;;;;;8.30;3.50;;;;;;;-0.65;74.77;99962.72;333652;28;4550;-78
2023/12/03 00:42:54;;;;;;;8.98;3.70;;;;;;;-0.62;74.94;99966.19;338955;28;5456;-78
2023/12/03 00:43:06;;;;;;;7.05;3.53;;;;;;;-0.60;74.27;99963.66;335440;28;18383;-78
2023/12/03 00:43:18;;;;;;;5.85;3.13;;;;;;;-0.60;74.75;99961.13;335935;28;11846;-78
2023/12/03 00:43:30;;;;;;;5.93;3.28;;;;;;;-0.62;74.13;99962.78;339991;28;4518;-78
2023/12/03 00:43:42;;;;;;;6.78;3.53;;;;;;;-0.64;74.24;99962.75;339812;28;4584;-78
2023/12/03 00:43:54;;;;;;;8.20;3.58;;;;;;;-0.61;74.30;99959.38;336418;28;17752;-75
2023/12/03 00:44:06;;;;;;;8.30;3.53;;;;;;;-0.60;74.33;99966.22;338831;28;5989;-75
2023/12/03 00:44:18;;;;;;;7.10;3.50;;;;;;;-0.59;74.56;99961.97;334527;28;4781;-75
2023/12/03 00:44:30;;;;;;;6.10;3.25;;;;;;;-0.56;74.39;99962.88;338219;28;17450;-75
2023/12/03 00:44:42;;;;;;;5.93;3.28;;;;;;;-0.57;74.37;99966.25;340797;28;4617;-75
2023/12/03 00:44:54;;;;;;;7.30;3.55;;;;;;;-0.55;75.06;99959.47;335761;28;13507;-75
2023/12/03 00:45:07;;;;;;;7.30;3.33;;;;;;;-0.50;74.70;99963.00;339942;28;5266;-76
2023/12/03 00:45:21;;;;;;;6.88;3.45;;;;;;;-0.46;74.04;99957.09;337494;28;12774;-76
2023/12/03 00:45:33;;;;;;;5.82;3.63;;;;;;;-0.47;74.97;99963.03;334672;28;5910;-76
2023/12/03 00:45:45;;;;;;;5.32;3.20;;;;;;;-0.46;74.39;99959.66;335888;28;13011;-76
2023/12/03 00:45:57;;;;;;;5.93;3.33;;;;;;;-0.43;74.54;99962.25;339108;28;4854;-76
2023/12/03 00:46:10;;;;;;;6.22;3.70;;;;;;;-0.40;74.00;99961.44;335509;28;17950;-76
2023/12/03 00:46:22;;;;;;;7.22;3.80;;;;;;;-0.38;74.21;99966.56;339369;28;4571;-76
2023/12/03 00:46:34;;;;;;;7.13;3.40;;;;;;;-0.39;74.02;99959.75;336540;28;11719;-76
2023/12/03 00:46:46;;;;;;;6.40;3.20;;;;;;;-0.36;74.71;99954.69;338684;28;4532;-78
2023/12/03 00:46:58;;;;;;;5.78;3.40;;;;;;;-0.34;74.41;99960.66;337167;28;4605;-76
2023/12/03 00:47:10;;;;;;;6.10;3.63;;;;;;;-0.32;74.87;99961.56;336551;28;13386;-76
2023/12/03 00:47:22;;;;;;;6.50;3.88;;;;;;;-0.30;74.09;99955.66;337968;28;17554;-76
2023/12/03 00:47:34;;;;;;;7.20;4.05;;;;;;;-0.30;74.85;99959.88;339797;28;4706;-76
2023/12/03 00:47:46;;;;;;;6.70;3.80;;;;;;;-0.29;74.47;99969.28;337070;28;18414;-75
2023/12/03 00:47:59;;;;;;;5.90;3.50;;;;;;;-0.29;74.77;99954.81;341004;28;5642;-78
2023/12/03 00:48:11;;;;;;;6.65;3.83;;;;;;;-0.36;74.22;99965.78;337075;28;17953;-78
2023/12/03 00:48:24;;;;;;;6.95;3.85;;;;;;;-0.36;74.39;99962.34;339106;28;4546;-78
2023/12/03 00:48:36;;;;;;;6.40;3.50;;;;;;;-0.38;74.79;99961.44;328497;28;17651;-77
2023/12/03 00:48:48;;;;;;;6.77;3.50;;;;;;;-0.37;74.02;99961.50;338424;28;4668;-78
2023/12/03 00:49:00;;;;;;;6.38;3.38;;;;;;;-0.33;74.38;99960.69;335063;28;18925;-78
2023/12/03 00:49:13;;;;;;;5.28;3.30;;;;;;;-0.29;74.59;99956.50;339963;28;4511;-78
2023/12/03 00:49:25;;;;;;;5.80;3.03;;;;;;;-0.28;74.69;99964.22;338382;28;4755;-78
2023/12/03 00:49:37;;;;;;;6.28;3.15;;;;;;;-0.25;74.50;99963.38;340240;28;4565;-78
2023/12/03 00:49:54;;;;;;;7.25;3.47;;;;;;;-0.23;74.15;99962.56;326493;28;17507;-76
2023/12/03 00:50:07;;;;;;;8.18;3.75;;;;;;;-0.20;74.30;99954.13;337475;28;13436;-74
2023/12/03 00:50:19;;;;;;;6.88;3.40;;;;;;;-0.25;74.49;99963.38;336950;28;18124;-74
2023/12/03 00:50:31;;;;;;;6.47;3.22;;;;;;;-0.26;74.27;99967.66;333332;28;5375;-75
2023/12/03 00:50:43;;;;;;;6.35;3.08;;;;;;;-0.26;74.50;99965.09;340880;28;5704;-74
2023/12/03 00:50:55;;;;;;;5.53;2.97;;;;;;;-0.24;74.07;99962.56;339703;28;5897;-76
2023/12/03 00:51:07;;;;;;;6.32;3.00;;;;;;;-0.24;74.06;99954.91;336089;28;18228;-76
2023/12/03 00:51:20;;;;;;;7.43;3.17;;;;;;;-0.21;74.27;99965.16;339127;28;5942;-76
2023/12/03 00:51:32;;;;;;;7.63;3.05;;;;;;;-0.25;74.09;99969.34;335910;28;17308;-77
2023/12/03 00:51:44;;;;;;;6.97;3.03;;;;;;;-0.31;74.08;99960.72;339365;28;5536;-78
2023/12/03 00:51:56;;;;;;;6.03;3.33;;;;;;;-0.31;73.90;99958.19;335970;28;18123;-78
2023/12/03 00:52:08;;;;;;;6.18;3.33;;;;;;;-0.31;74.82;99969.25;338926;28;5754;-76
2023/12/03 00:52:20;;;;;;;7.18;3.47;;;;;;;-0.33;74.81;99959.84;339649;28;4651;-76
2023/12/03 00:52:32;;;;;;;6.90;3.45;;;;;;;-0.34;75.39;99964.09;336937;28;19214;-75
2023/12/03 00:52:44;;;;;;;6.40;3.60;;;;;;;-0.34;74.93;99965.78;340206;28;5074;-75
2023/12/03 00:52:56;;;;;;;5.90;3.33;;;;;;;-0.34;75.17;99963.22;341187;28;4542;-75
2023/12/03 00:53:09;;;;;;;6.57;3.35;;;;;;;-0.33;75.55;99959.84;334586;28;17952;-75
2023/12/03 00:53:21;;;;;;;6.28;3.00;;;;;;;-0.30;75.95;99967.56;339931;28;4575;-75
2023/12/03 00:53:33;;;;;;;5.43;2.88;;;;;;;-0.29;75.99;99964.19;337795;28;5222;-75
2023/12/03 00:53:45;;;;;;;5.38;3.10;;;;;;;-0.27;75.33;99965.06;340077;28;4714;-75
2023/12/03 00:53:57;;;;;;;6.72;3.47;;;;;;;-0.26;75.67;99961.69;337883;28;5251;-76
2023/12/03 00:54:09;;;;;;;7.25;3.30;;;;;;;-0.21;75.25;99960.91;339233;28;5003;-76
2023/12/03 00:54:21;;;;;;;7.43;3.25;;;;;;;-0.18;75.47;99962.66;338457;28;5892;-76
2023/12/03 00:54:33;;;;;;;7.38;3.35;;;;;;;-0.17;75.62;99959.25;339465;28;17950;-77
2023/12/03 00:54:46;;;;;;;7.03;3.17;;;;;;;-0.16;75.08;99958.44;331212;28;21204;-78
2023/12/03 00:54:58;;;;;;;5.90;2.80;;;;;;;-0.16;75.14;99966.09;336017;28;12588;-78
2023/12/03 00:55:10;;;;;;;5.05;2.70;;;;;;;-0.16;75.06;99963.56;339118;28;5032;-78
2023/12/03 00:55:23;;;;;;;5.10;2.60;;;;;;;-0.14;74.72;99964.44;337059;28;4637;-77
2023/12/03 00:55:35;;;;;;;5.78;2.63;;;;;;;-0.13;75.57;99963.56;339918;28;5296;-75
2023/12/03 00:55:47;;;;;;;7.25;3.05;;;;;;;-0.12;75.10;99955.09;341153;28;5410;-75
2023/12/03 00:55:59;;;;;;;7.53;3.22;;;;;;;-0.10;75.39;99966.19;333851;28;18056;-75
2023/12/03 00:56:11;;;;;;;7.65;3.55;;;;;;;-0.12;75.55;99959.31;339331;28;4614;-75
2023/12/03 00:56:23;;;;;;;6.70;3.63;;;;;;;-0.18;74.62;99962.66;337465;28;16385;-75
2023/12/03 00:56:35;;;;;;;6.68;3.67;;;;;;;-0.17;74.22;99961.81;339680;28;4611;-75
2023/12/03 00:56:47;;;;;;;5.57;3.40;;;;;;;-0.18;74.30;99962.66;339424;28;5393;-76
2023/12/03 00:56:59;;;;;;;5.28;3.25;;;;;;;-0.16;74.67;99961.00;337706;28;18028;-77
2023/12/03 00:57:12;;;;;;;5.05;3.00;;;;;;;-0.08;74.90;99961.97;340093;28;5350;-77
2023/12/03 00:57:24;;;;;;;6.35;3.15;;;;;;;-0.02;74.13;99962.06;337709;28;18317;-77
2023/12/03 00:57:36;;;;;;;6.95;3.30;;;;;;;-0.03;74.90;99960.31;335276;28;4638;-77
2023/12/03 00:57:49;;;;;;;6.47;3.17;;;;;;;-0.06;74.73;99960.28;340929;28;4517;-77
2023/12/03 00:58:01;;;;;;;7.00;3.72;;;;;;;-0.12;74.55;99960.19;338407;28;17994;-77
2023/12/03 00:58:13;;;;;;;9.60;3.90;;;;;;;-0.16;74.36;99961.00;339361;28;4703;-77
2023/12/03 00:58:25;;;;;;;9.60;3.70;;;;;;;-0.17;74.56;99959.25;338000;28;18196;-77
2023/12/03 00:58:37;;;;;;;8.10;2.85;;;;;;;-0.14;75.46;99961.00;340326;28;9808;-77
2023/12/03 00:58:49;;;;;;;7.40;3.20;;;;;;;-0.13;75.44;99961.03;337496;28;18020;-75
2023/12/03 00:59:01;;;;;;;7.15;3.60;;;;;;;-0.14;75.44;99955.88;335093;28;4593;-75
2023/12/03 00:59:13;;;;;;;7.10;3.90;;;;;;;-0.18;76.19;99960.09;340445;28;5271;-74